sensor_id;sensor_type;location;lat;lon;timestamp;P1;durP1;ratioP1;P2;durP2;ratioP2
37527;SDS011;23372;52.050;4.810;2023-09-08T00:02:24;17.33;;;14.43;;
37527;SDS011;23372;52.050;4.810;2023-09-08T00:04:53;20.27;;;15.48;;
37527;SDS011;23372;52.050;4.810;2023-09-08T00:07:19;21.13;;;16.05;;
37527;SDS011;23372;52.050;4.810;2023-09-08T00:09:45;17.58;;;14.10;;
37527;SDS011;23372;52.050;4.810;2023-09-08T00:12:11;18.67;;;15.20;;
37527;SDS011;23372;52.050;4.810;2023-09-08T00:14:36;18.52;;;15.50;;
37527;SDS011;23372;52.050;4.810;2023-09-08T00:17:02;19.05;;;15.45;;
37527;SDS011;23372;52.050;4.810;2023-09-08T00:19:27;16.35;;;13.90;;
37527;SDS011;23372;52.050;4.810;2023-09-08T00:21:53;18.80;;;15.10;;
37527;SDS011;23372;52.050;4.810;2023-09-08T00:24:19;21.83;;;15.63;;
37527;SDS011;23372;52.050;4.810;2023-09-08T00:26:44;24.10;;;16.85;;
37527;SDS011;23372;52.050;4.810;2023-09-08T00:29:10;22.95;;;16.25;;
37527;SDS011;23372;52.050;4.810;2023-09-08T00:31:36;19.45;;;15.63;;
37527;SDS011;23372;52.050;4.810;2023-09-08T00:34:01;19.23;;;15.52;;
37527;SDS011;23372;52.050;4.810;2023-09-08T00:36:27;22.75;;;17.02;;
37527;SDS011;23372;52.050;4.810;2023-09-08T00:38:52;20.50;;;16.13;;
37527;SDS011;23372;52.050;4.810;2023-09-08T00:41:18;24.70;;;18.25;;
37527;SDS011;23372;52.050;4.810;2023-09-08T00:43:43;18.73;;;15.25;;
37527;SDS011;23372;52.050;4.810;2023-09-08T00:46:09;20.55;;;16.50;;
37527;SDS011;23372;52.050;4.810;2023-09-08T00:48:37;19.88;;;16.45;;
37527;SDS011;23372;52.050;4.810;2023-09-08T00:51:03;20.48;;;17.13;;
37527;SDS011;23372;52.050;4.810;2023-09-08T00:53:30;20.60;;;16.88;;
37527;SDS011;23372;52.050;4.810;2023-09-08T00:55:56;21.98;;;17.23;;
37527;SDS011;23372;52.050;4.810;2023-09-08T00:58:24;24.27;;;17.20;;
37527;SDS011;23372;52.050;4.810;2023-09-08T01:00:50;24.15;;;17.85;;
37527;SDS011;23372;52.050;4.810;2023-09-08T01:03:16;27.08;;;18.58;;
37527;SDS011;23372;52.050;4.810;2023-09-08T01:05:41;22.17;;;18.02;;
37527;SDS011;23372;52.050;4.810;2023-09-08T01:08:08;24.25;;;18.77;;
37527;SDS011;23372;52.050;4.810;2023-09-08T01:10:35;23.98;;;18.58;;
37527;SDS011;23372;52.050;4.810;2023-09-08T01:13:02;21.73;;;18.00;;
37527;SDS011;23372;52.050;4.810;2023-09-08T01:15:27;24.35;;;17.25;;
37527;SDS011;23372;52.050;4.810;2023-09-08T01:17:53;22.33;;;17.85;;
37527;SDS011;23372;52.050;4.810;2023-09-08T01:20:20;22.90;;;17.58;;
37527;SDS011;23372;52.050;4.810;2023-09-08T01:25:33;26.52;;;18.33;;
37527;SDS011;23372;52.050;4.810;2023-09-08T01:28:05;24.23;;;18.38;;
37527;SDS011;23372;52.050;4.810;2023-09-08T01:30:31;26.67;;;18.95;;
37527;SDS011;23372;52.050;4.810;2023-09-08T01:32:58;27.55;;;18.65;;
37527;SDS011;23372;52.050;4.810;2023-09-08T01:35:24;26.45;;;19.23;;
37527;SDS011;23372;52.050;4.810;2023-09-08T01:37:50;24.48;;;17.80;;
37527;SDS011;23372;52.050;4.810;2023-09-08T01:40:16;25.90;;;17.70;;
37527;SDS011;23372;52.050;4.810;2023-09-08T01:42:44;24.95;;;18.33;;
37527;SDS011;23372;52.050;4.810;2023-09-08T01:45:10;25.35;;;19.50;;
37527;SDS011;23372;52.050;4.810;2023-09-08T01:47:36;25.73;;;18.58;;
37527;SDS011;23372;52.050;4.810;2023-09-08T01:50:02;25.48;;;20.02;;
37527;SDS011;23372;52.050;4.810;2023-09-08T01:52:28;26.75;;;19.85;;
37527;SDS011;23372;52.050;4.810;2023-09-08T01:54:53;26.50;;;20.02;;
37527;SDS011;23372;52.050;4.810;2023-09-08T01:57:19;26.55;;;20.13;;
37527;SDS011;23372;52.050;4.810;2023-09-08T01:59:44;24.23;;;19.65;;
37527;SDS011;23372;52.050;4.810;2023-09-08T02:02:10;23.75;;;20.00;;
37527;SDS011;23372;52.050;4.810;2023-09-08T02:04:36;27.38;;;21.23;;
37527;SDS011;23372;52.050;4.810;2023-09-08T02:07:02;28.10;;;20.90;;
37527;SDS011;23372;52.050;4.810;2023-09-08T02:09:30;26.88;;;19.90;;
37527;SDS011;23372;52.050;4.810;2023-09-08T02:12:00;24.08;;;19.67;;
37527;SDS011;23372;52.050;4.810;2023-09-08T02:14:26;28.95;;;20.40;;
37527;SDS011;23372;52.050;4.810;2023-09-08T02:16:52;25.90;;;20.23;;
37527;SDS011;23372;52.050;4.810;2023-09-08T02:19:18;26.92;;;20.35;;
37527;SDS011;23372;52.050;4.810;2023-09-08T02:21:44;26.90;;;20.52;;
37527;SDS011;23372;52.050;4.810;2023-09-08T02:24:10;24.27;;;19.55;;
37527;SDS011;23372;52.050;4.810;2023-09-08T02:26:36;23.75;;;18.90;;
37527;SDS011;23372;52.050;4.810;2023-09-08T02:29:02;32.80;;;20.52;;
37527;SDS011;23372;52.050;4.810;2023-09-08T02:31:28;24.48;;;20.10;;
37527;SDS011;23372;52.050;4.810;2023-09-08T02:33:53;27.33;;;20.35;;
37527;SDS011;23372;52.050;4.810;2023-09-08T02:36:19;25.83;;;19.60;;
37527;SDS011;23372;52.050;4.810;2023-09-08T02:38:50;29.55;;;20.27;;
37527;SDS011;23372;52.050;4.810;2023-09-08T02:41:16;25.92;;;20.13;;
37527;SDS011;23372;52.050;4.810;2023-09-08T02:43:42;25.85;;;19.75;;
37527;SDS011;23372;52.050;4.810;2023-09-08T02:46:07;29.88;;;20.75;;
37527;SDS011;23372;52.050;4.810;2023-09-08T02:48:34;26.95;;;20.20;;
37527;SDS011;23372;52.050;4.810;2023-09-08T02:51:00;31.00;;;22.00;;
37527;SDS011;23372;52.050;4.810;2023-09-08T02:53:25;28.83;;;22.25;;
37527;SDS011;23372;52.050;4.810;2023-09-08T02:55:53;29.77;;;23.25;;
37527;SDS011;23372;52.050;4.810;2023-09-08T02:58:19;27.30;;;20.33;;
37527;SDS011;23372;52.050;4.810;2023-09-08T03:00:45;27.83;;;20.02;;
37527;SDS011;23372;52.050;4.810;2023-09-08T03:03:11;30.08;;;22.20;;
37527;SDS011;23372;52.050;4.810;2023-09-08T03:05:36;26.60;;;21.45;;
37527;SDS011;23372;52.050;4.810;2023-09-08T03:08:02;24.02;;;19.88;;
37527;SDS011;23372;52.050;4.810;2023-09-08T03:10:28;26.67;;;21.63;;
37527;SDS011;23372;52.050;4.810;2023-09-08T03:12:54;27.75;;;19.48;;
37527;SDS011;23372;52.050;4.810;2023-09-08T03:15:20;25.98;;;20.42;;
37527;SDS011;23372;52.050;4.810;2023-09-08T03:17:45;26.88;;;21.15;;
37527;SDS011;23372;52.050;4.810;2023-09-08T03:20:11;29.58;;;22.02;;
37527;SDS011;23372;52.050;4.810;2023-09-08T03:22:38;26.63;;;21.35;;
37527;SDS011;23372;52.050;4.810;2023-09-08T03:25:04;28.23;;;23.10;;
37527;SDS011;23372;52.050;4.810;2023-09-08T03:27:30;26.88;;;22.65;;
37527;SDS011;23372;52.050;4.810;2023-09-08T03:29:55;28.08;;;22.10;;
37527;SDS011;23372;52.050;4.810;2023-09-08T03:32:21;26.58;;;21.52;;
37527;SDS011;23372;52.050;4.810;2023-09-08T03:34:46;31.90;;;23.48;;
37527;SDS011;23372;52.050;4.810;2023-09-08T03:37:12;30.70;;;22.50;;
37527;SDS011;23372;52.050;4.810;2023-09-08T03:39:38;24.77;;;19.52;;
37527;SDS011;23372;52.050;4.810;2023-09-08T03:42:03;27.90;;;20.38;;
37527;SDS011;23372;52.050;4.810;2023-09-08T03:44:29;29.38;;;21.83;;
37527;SDS011;23372;52.050;4.810;2023-09-08T03:46:54;28.02;;;22.17;;
37527;SDS011;23372;52.050;4.810;2023-09-08T03:49:20;26.05;;;21.27;;
37527;SDS011;23372;52.050;4.810;2023-09-08T03:51:45;27.63;;;22.17;;
37527;SDS011;23372;52.050;4.810;2023-09-08T03:54:11;28.02;;;21.77;;
37527;SDS011;23372;52.050;4.810;2023-09-08T03:56:36;29.92;;;22.15;;
37527;SDS011;23372;52.050;4.810;2023-09-08T03:59:02;22.60;;;19.58;;
37527;SDS011;23372;52.050;4.810;2023-09-08T04:01:27;26.23;;;20.35;;
37527;SDS011;23372;52.050;4.810;2023-09-08T04:03:53;28.80;;;20.30;;
37527;SDS011;23372;52.050;4.810;2023-09-08T04:06:18;26.48;;;20.98;;
37527;SDS011;23372;52.050;4.810;2023-09-08T04:08:44;27.77;;;20.52;;
37527;SDS011;23372;52.050;4.810;2023-09-08T04:11:09;27.63;;;22.08;;
37527;SDS011;23372;52.050;4.810;2023-09-08T04:13:35;25.35;;;20.98;;
37527;SDS011;23372;52.050;4.810;2023-09-08T04:16:00;29.35;;;21.33;;
37527;SDS011;23372;52.050;4.810;2023-09-08T04:18:26;26.70;;;21.00;;
37527;SDS011;23372;52.050;4.810;2023-09-08T04:20:52;31.60;;;22.30;;
37527;SDS011;23372;52.050;4.810;2023-09-08T04:23:17;27.42;;;22.17;;
37527;SDS011;23372;52.050;4.810;2023-09-08T04:25:43;29.13;;;21.88;;
37527;SDS011;23372;52.050;4.810;2023-09-08T04:28:08;26.65;;;21.33;;
37527;SDS011;23372;52.050;4.810;2023-09-08T04:30:34;30.25;;;22.55;;
37527;SDS011;23372;52.050;4.810;2023-09-08T04:32:59;30.85;;;21.65;;
37527;SDS011;23372;52.050;4.810;2023-09-08T04:35:25;27.35;;;22.00;;
37527;SDS011;23372;52.050;4.810;2023-09-08T04:37:51;28.90;;;21.65;;
37527;SDS011;23372;52.050;4.810;2023-09-08T04:40:16;26.40;;;21.17;;
37527;SDS011;23372;52.050;4.810;2023-09-08T04:42:42;30.58;;;22.08;;
37527;SDS011;23372;52.050;4.810;2023-09-08T04:45:07;30.70;;;22.33;;
37527;SDS011;23372;52.050;4.810;2023-09-08T04:47:33;31.17;;;23.05;;
37527;SDS011;23372;52.050;4.810;2023-09-08T04:49:59;27.15;;;21.30;;
37527;SDS011;23372;52.050;4.810;2023-09-08T04:52:24;32.70;;;21.23;;
37527;SDS011;23372;52.050;4.810;2023-09-08T04:54:50;27.85;;;20.75;;
37527;SDS011;23372;52.050;4.810;2023-09-08T04:57:15;25.38;;;20.15;;
37527;SDS011;23372;52.050;4.810;2023-09-08T04:59:41;24.90;;;20.30;;
37527;SDS011;23372;52.050;4.810;2023-09-08T05:02:06;26.05;;;20.60;;
37527;SDS011;23372;52.050;4.810;2023-09-08T05:04:32;31.95;;;22.33;;
37527;SDS011;23372;52.050;4.810;2023-09-08T05:06:57;29.45;;;21.38;;
37527;SDS011;23372;52.050;4.810;2023-09-08T05:09:23;27.85;;;20.63;;
37527;SDS011;23372;52.050;4.810;2023-09-08T05:11:48;30.73;;;21.38;;
37527;SDS011;23372;52.050;4.810;2023-09-08T05:14:14;27.77;;;20.00;;
37527;SDS011;23372;52.050;4.810;2023-09-08T05:16:39;28.98;;;21.13;;
37527;SDS011;23372;52.050;4.810;2023-09-08T05:19:11;27.98;;;20.73;;
37527;SDS011;23372;52.050;4.810;2023-09-08T05:21:40;32.67;;;22.02;;
37527;SDS011;23372;52.050;4.810;2023-09-08T05:24:06;27.48;;;20.20;;
37527;SDS011;23372;52.050;4.810;2023-09-08T05:26:33;30.35;;;20.95;;
37527;SDS011;23372;52.050;4.810;2023-09-08T05:29:01;31.80;;;20.80;;
37527;SDS011;23372;52.050;4.810;2023-09-08T05:31:26;25.33;;;19.77;;
37527;SDS011;23372;52.050;4.810;2023-09-08T05:33:52;30.95;;;21.75;;
37527;SDS011;23372;52.050;4.810;2023-09-08T05:36:17;27.13;;;20.38;;
37527;SDS011;23372;52.050;4.810;2023-09-08T05:38:43;33.53;;;21.58;;
37527;SDS011;23372;52.050;4.810;2023-09-08T05:41:09;32.05;;;22.17;;
37527;SDS011;23372;52.050;4.810;2023-09-08T05:43:34;37.47;;;23.48;;
37527;SDS011;23372;52.050;4.810;2023-09-08T05:46:00;33.70;;;22.65;;
37527;SDS011;23372;52.050;4.810;2023-09-08T05:48:26;29.42;;;21.77;;
37527;SDS011;23372;52.050;4.810;2023-09-08T05:50:51;32.58;;;23.63;;
37527;SDS011;23372;52.050;4.810;2023-09-08T05:53:17;27.88;;;21.60;;
37527;SDS011;23372;52.050;4.810;2023-09-08T05:55:42;30.52;;;22.33;;
37527;SDS011;23372;52.050;4.810;2023-09-08T05:58:08;28.38;;;22.70;;
37527;SDS011;23372;52.050;4.810;2023-09-08T06:00:33;28.30;;;23.40;;
37527;SDS011;23372;52.050;4.810;2023-09-08T06:03:00;34.35;;;23.02;;
37527;SDS011;23372;52.050;4.810;2023-09-08T06:05:25;28.67;;;22.42;;
37527;SDS011;23372;52.050;4.810;2023-09-08T06:07:51;32.05;;;23.88;;
37527;SDS011;23372;52.050;4.810;2023-09-08T06:10:16;29.20;;;23.05;;
37527;SDS011;23372;52.050;4.810;2023-09-08T06:12:42;28.98;;;22.38;;
37527;SDS011;23372;52.050;4.810;2023-09-08T06:15:08;32.20;;;22.52;;
37527;SDS011;23372;52.050;4.810;2023-09-08T06:17:34;28.65;;;21.60;;
37527;SDS011;23372;52.050;4.810;2023-09-08T06:19:59;28.13;;;22.67;;
37527;SDS011;23372;52.050;4.810;2023-09-08T06:22:25;29.15;;;23.17;;
37527;SDS011;23372;52.050;4.810;2023-09-08T06:24:50;31.63;;;22.98;;
37527;SDS011;23372;52.050;4.810;2023-09-08T06:27:16;28.20;;;22.05;;
37527;SDS011;23372;52.050;4.810;2023-09-08T06:29:41;31.92;;;22.95;;
37527;SDS011;23372;52.050;4.810;2023-09-08T06:32:08;30.42;;;22.88;;
37527;SDS011;23372;52.050;4.810;2023-09-08T06:34:35;28.58;;;23.50;;
37527;SDS011;23372;52.050;4.810;2023-09-08T06:37:00;29.52;;;23.40;;
37527;SDS011;23372;52.050;4.810;2023-09-08T06:39:27;33.78;;;22.75;;
37527;SDS011;23372;52.050;4.810;2023-09-08T06:41:53;30.88;;;22.55;;
37527;SDS011;23372;52.050;4.810;2023-09-08T06:44:21;28.92;;;22.25;;
37527;SDS011;23372;52.050;4.810;2023-09-08T06:46:47;33.60;;;23.95;;
37527;SDS011;23372;52.050;4.810;2023-09-08T06:49:12;29.27;;;23.25;;
37527;SDS011;23372;52.050;4.810;2023-09-08T06:51:38;29.92;;;22.80;;
37527;SDS011;23372;52.050;4.810;2023-09-08T06:54:04;25.75;;;20.90;;
37527;SDS011;23372;52.050;4.810;2023-09-08T06:56:30;23.27;;;19.88;;
37527;SDS011;23372;52.050;4.810;2023-09-08T06:58:55;19.38;;;17.27;;
37527;SDS011;23372;52.050;4.810;2023-09-08T07:01:23;19.33;;;17.17;;
37527;SDS011;23372;52.050;4.810;2023-09-08T07:03:49;19.90;;;16.48;;
37527;SDS011;23372;52.050;4.810;2023-09-08T07:06:14;18.52;;;15.38;;
37527;SDS011;23372;52.050;4.810;2023-09-08T07:08:40;20.25;;;17.80;;
37527;SDS011;23372;52.050;4.810;2023-09-08T07:11:06;21.45;;;16.70;;
37527;SDS011;23372;52.050;4.810;2023-09-08T07:13:32;24.02;;;17.27;;
37527;SDS011;23372;52.050;4.810;2023-09-08T07:15:57;17.70;;;15.38;;
37527;SDS011;23372;52.050;4.810;2023-09-08T07:18:23;20.17;;;16.58;;
37527;SDS011;23372;52.050;4.810;2023-09-08T07:20:49;15.98;;;14.30;;
37527;SDS011;23372;52.050;4.810;2023-09-08T07:23:16;21.02;;;16.75;;
37527;SDS011;23372;52.050;4.810;2023-09-08T07:25:46;17.95;;;16.17;;
37527;SDS011;23372;52.050;4.810;2023-09-08T07:28:13;17.48;;;15.77;;
37527;SDS011;23372;52.050;4.810;2023-09-08T07:30:38;18.92;;;15.10;;
37527;SDS011;23372;52.050;4.810;2023-09-08T07:33:04;18.73;;;15.00;;
37527;SDS011;23372;52.050;4.810;2023-09-08T07:35:30;19.30;;;15.68;;
37527;SDS011;23372;52.050;4.810;2023-09-08T07:37:56;17.17;;;15.52;;
37527;SDS011;23372;52.050;4.810;2023-09-08T07:40:22;16.80;;;15.15;;
37527;SDS011;23372;52.050;4.810;2023-09-08T07:42:47;17.00;;;15.30;;
37527;SDS011;23372;52.050;4.810;2023-09-08T07:45:13;17.23;;;15.50;;
37527;SDS011;23372;52.050;4.810;2023-09-08T07:47:38;17.65;;;15.80;;
37527;SDS011;23372;52.050;4.810;2023-09-08T07:50:21;17.30;;;15.48;;
37527;SDS011;23372;52.050;4.810;2023-09-08T07:52:51;16.83;;;15.13;;
37527;SDS011;23372;52.050;4.810;2023-09-08T07:55:18;17.48;;;15.65;;
37527;SDS011;23372;52.050;4.810;2023-09-08T07:57:44;17.92;;;16.13;;
37527;SDS011;23372;52.050;4.810;2023-09-08T08:00:11;18.60;;;16.65;;
37527;SDS011;23372;52.050;4.810;2023-09-08T08:02:42;17.75;;;15.93;;
37527;SDS011;23372;52.050;4.810;2023-09-08T08:05:11;17.92;;;15.98;;
37527;SDS011;23372;52.050;4.810;2023-09-08T08:07:37;17.77;;;15.88;;
37527;SDS011;23372;52.050;4.810;2023-09-08T08:10:03;18.85;;;16.85;;
37527;SDS011;23372;52.050;4.810;2023-09-08T08:12:29;16.48;;;14.85;;
37527;SDS011;23372;52.050;4.810;2023-09-08T08:14:54;18.33;;;16.38;;
37527;SDS011;23372;52.050;4.810;2023-09-08T08:17:20;17.48;;;15.73;;
37527;SDS011;23372;52.050;4.810;2023-09-08T08:19:46;18.92;;;16.67;;
37527;SDS011;23372;52.050;4.810;2023-09-08T08:22:12;17.55;;;15.70;;
37527;SDS011;23372;52.050;4.810;2023-09-08T08:24:38;18.30;;;16.40;;
37527;SDS011;23372;52.050;4.810;2023-09-08T08:27:03;18.40;;;15.50;;
37527;SDS011;23372;52.050;4.810;2023-09-08T08:29:29;17.70;;;16.00;;
37527;SDS011;23372;52.050;4.810;2023-09-08T08:31:55;21.27;;;15.90;;
37527;SDS011;23372;52.050;4.810;2023-09-08T08:34:20;19.55;;;17.27;;
37527;SDS011;23372;52.050;4.810;2023-09-08T08:36:46;18.88;;;17.00;;
37527;SDS011;23372;52.050;4.810;2023-09-08T08:39:11;19.77;;;17.67;;
37527;SDS011;23372;52.050;4.810;2023-09-08T08:41:37;17.98;;;16.13;;
37527;SDS011;23372;52.050;4.810;2023-09-08T08:44:07;19.85;;;17.52;;
37527;SDS011;23372;52.050;4.810;2023-09-08T08:46:33;20.73;;;17.40;;
37527;SDS011;23372;52.050;4.810;2023-09-08T08:49:01;17.52;;;15.68;;
37527;SDS011;23372;52.050;4.810;2023-09-08T08:51:28;22.67;;;17.63;;
37527;SDS011;23372;52.050;4.810;2023-09-08T08:53:56;23.52;;;17.70;;
37527;SDS011;23372;52.050;4.810;2023-09-08T08:56:22;22.55;;;17.00;;
37527;SDS011;23372;52.050;4.810;2023-09-08T08:58:48;20.33;;;17.73;;
37527;SDS011;23372;52.050;4.810;2023-09-08T09:01:18;19.15;;;17.25;;
37527;SDS011;23372;52.050;4.810;2023-09-08T09:03:46;19.52;;;17.50;;
37527;SDS011;23372;52.050;4.810;2023-09-08T09:06:14;22.95;;;17.88;;
37527;SDS011;23372;52.050;4.810;2023-09-08T09:08:40;21.20;;;18.92;;
37527;SDS011;23372;52.050;4.810;2023-09-08T09:11:09;21.30;;;17.73;;
37527;SDS011;23372;52.050;4.810;2023-09-08T09:13:35;21.42;;;17.88;;
37527;SDS011;23372;52.050;4.810;2023-09-08T09:16:01;22.33;;;19.85;;
37527;SDS011;23372;52.050;4.810;2023-09-08T09:18:31;23.23;;;19.40;;
37527;SDS011;23372;52.050;4.810;2023-09-08T09:20:58;22.88;;;19.17;;
37527;SDS011;23372;52.050;4.810;2023-09-08T09:23:29;25.33;;;18.17;;
37527;SDS011;23372;52.050;4.810;2023-09-08T09:25:59;30.17;;;20.73;;
37527;SDS011;23372;52.050;4.810;2023-09-08T09:28:29;22.25;;;19.58;;
37527;SDS011;23372;52.050;4.810;2023-09-08T09:30:54;23.50;;;20.65;;
37527;SDS011;23372;52.050;4.810;2023-09-08T09:33:20;25.85;;;20.10;;
37527;SDS011;23372;52.050;4.810;2023-09-08T09:35:48;22.00;;;19.60;;
37527;SDS011;23372;52.050;4.810;2023-09-08T09:38:18;24.33;;;20.15;;
37527;SDS011;23372;52.050;4.810;2023-09-08T09:40:47;24.58;;;18.88;;
37527;SDS011;23372;52.050;4.810;2023-09-08T09:43:17;27.08;;;20.98;;
37527;SDS011;23372;52.050;4.810;2023-09-08T09:45:46;23.45;;;19.50;;
37527;SDS011;23372;52.050;4.810;2023-09-08T09:48:12;28.02;;;19.95;;
37527;SDS011;23372;52.050;4.810;2023-09-08T09:50:38;29.33;;;19.92;;
37527;SDS011;23372;52.050;4.810;2023-09-08T09:53:11;24.48;;;18.90;;
37527;SDS011;23372;52.050;4.810;2023-09-08T09:55:39;25.63;;;19.40;;
37527;SDS011;23372;52.050;4.810;2023-09-08T09:58:06;21.30;;;18.50;;
37527;SDS011;23372;52.050;4.810;2023-09-08T10:00:32;22.83;;;19.20;;
37527;SDS011;23372;52.050;4.810;2023-09-08T10:02:59;24.73;;;21.33;;
37527;SDS011;23372;52.050;4.810;2023-09-08T10:05:26;21.08;;;18.10;;
37527;SDS011;23372;52.050;4.810;2023-09-08T10:07:52;25.63;;;19.70;;
37527;SDS011;23372;52.050;4.810;2023-09-08T10:10:18;25.00;;;18.40;;
37527;SDS011;23372;52.050;4.810;2023-09-08T10:12:46;23.05;;;19.27;;
37527;SDS011;23372;52.050;4.810;2023-09-08T10:15:18;26.00;;;21.95;;
37527;SDS011;23372;52.050;4.810;2023-09-08T10:17:46;25.67;;;19.60;;
37527;SDS011;23372;52.050;4.810;2023-09-08T10:20:17;22.95;;;17.45;;
37527;SDS011;23372;52.050;4.810;2023-09-08T10:22:46;19.33;;;17.33;;
37527;SDS011;23372;52.050;4.810;2023-09-08T10:25:14;24.77;;;18.35;;
37527;SDS011;23372;52.050;4.810;2023-09-08T10:27:43;23.08;;;17.85;;
37527;SDS011;23372;52.050;4.810;2023-09-08T10:30:09;21.27;;;17.30;;
37527;SDS011;23372;52.050;4.810;2023-09-08T10:32:36;19.88;;;17.30;;
37527;SDS011;23372;52.050;4.810;2023-09-08T10:35:02;20.05;;;15.73;;
37527;SDS011;23372;52.050;4.810;2023-09-08T10:37:29;18.17;;;16.08;;
37527;SDS011;23372;52.050;4.810;2023-09-08T10:39:55;24.05;;;19.35;;
37527;SDS011;23372;52.050;4.810;2023-09-08T10:42:26;21.77;;;14.98;;
37527;SDS011;23372;52.050;4.810;2023-09-08T10:44:57;20.75;;;16.15;;
37527;SDS011;23372;52.050;4.810;2023-09-08T10:47:23;19.13;;;15.82;;
37527;SDS011;23372;52.050;4.810;2023-09-08T10:49:51;21.23;;;16.58;;
37527;SDS011;23372;52.050;4.810;2023-09-08T10:52:20;21.55;;;17.48;;
37527;SDS011;23372;52.050;4.810;2023-09-08T10:54:47;18.10;;;15.63;;
37527;SDS011;23372;52.050;4.810;2023-09-08T10:57:24;19.58;;;17.20;;
37527;SDS011;23372;52.050;4.810;2023-09-08T10:59:53;19.63;;;14.95;;
37527;SDS011;23372;52.050;4.810;2023-09-08T11:02:33;16.92;;;13.35;;
37527;SDS011;23372;52.050;4.810;2023-09-08T11:05:12;21.85;;;18.27;;
37527;SDS011;23372;52.050;4.810;2023-09-08T11:07:40;17.90;;;14.38;;
37527;SDS011;23372;52.050;4.810;2023-09-08T11:10:07;21.45;;;14.88;;
37527;SDS011;23372;52.050;4.810;2023-09-08T11:12:34;17.00;;;14.13;;
37527;SDS011;23372;52.050;4.810;2023-09-08T11:15:01;15.43;;;11.90;;
37527;SDS011;23372;52.050;4.810;2023-09-08T11:17:32;13.38;;;10.70;;
37527;SDS011;23372;52.050;4.810;2023-09-08T11:19:59;11.55;;;9.60;;
37527;SDS011;23372;52.050;4.810;2023-09-08T11:22:25;13.77;;;10.60;;
37527;SDS011;23372;52.050;4.810;2023-09-08T11:24:52;11.05;;;9.20;;
37527;SDS011;23372;52.050;4.810;2023-09-08T11:27:19;11.88;;;8.85;;
37527;SDS011;23372;52.050;4.810;2023-09-08T11:29:46;10.85;;;8.48;;
37527;SDS011;23372;52.050;4.810;2023-09-08T11:32:12;11.63;;;8.98;;
37527;SDS011;23372;52.050;4.810;2023-09-08T11:34:38;14.63;;;9.43;;
37527;SDS011;23372;52.050;4.810;2023-09-08T11:37:12;12.45;;;7.97;;
37527;SDS011;23372;52.050;4.810;2023-09-08T11:39:39;10.50;;;7.60;;
37527;SDS011;23372;52.050;4.810;2023-09-08T11:42:05;11.23;;;7.22;;
37527;SDS011;23372;52.050;4.810;2023-09-08T11:44:32;13.75;;;7.70;;
37527;SDS011;23372;52.050;4.810;2023-09-08T11:46:59;14.75;;;9.10;;
37527;SDS011;23372;52.050;4.810;2023-09-08T11:49:26;10.73;;;9.63;;
37527;SDS011;23372;52.050;4.810;2023-09-08T11:51:51;14.85;;;9.02;;
37527;SDS011;23372;52.050;4.810;2023-09-08T11:54:17;9.80;;;7.82;;
37527;SDS011;23372;52.050;4.810;2023-09-08T11:56:43;10.38;;;7.05;;
37527;SDS011;23372;52.050;4.810;2023-09-08T11:59:10;11.05;;;6.72;;
37527;SDS011;23372;52.050;4.810;2023-09-08T12:01:36;9.73;;;6.90;;
37527;SDS011;23372;52.050;4.810;2023-09-08T12:04:02;9.70;;;6.22;;
37527;SDS011;23372;52.050;4.810;2023-09-08T12:06:27;11.65;;;7.78;;
37527;SDS011;23372;52.050;4.810;2023-09-08T12:08:54;13.18;;;7.88;;
37527;SDS011;23372;52.050;4.810;2023-09-08T12:11:21;11.68;;;7.03;;
37527;SDS011;23372;52.050;4.810;2023-09-08T12:13:46;11.98;;;8.13;;
37527;SDS011;23372;52.050;4.810;2023-09-08T12:16:21;8.85;;;8.00;;
37527;SDS011;23372;52.050;4.810;2023-09-08T12:18:49;9.65;;;6.25;;
37527;SDS011;23372;52.050;4.810;2023-09-08T12:21:16;9.75;;;6.50;;
37527;SDS011;23372;52.050;4.810;2023-09-08T12:23:48;9.30;;;6.55;;
37527;SDS011;23372;52.050;4.810;2023-09-08T12:26:14;11.18;;;7.72;;
37527;SDS011;23372;52.050;4.810;2023-09-08T12:28:41;9.63;;;7.05;;
37527;SDS011;23372;52.050;4.810;2023-09-08T12:31:08;7.95;;;7.05;;
37527;SDS011;23372;52.050;4.810;2023-09-08T12:33:34;6.85;;;5.57;;
37527;SDS011;23372;52.050;4.810;2023-09-08T12:36:09;11.23;;;6.50;;
37527;SDS011;23372;52.050;4.810;2023-09-08T12:38:50;7.47;;;5.60;;
37527;SDS011;23372;52.050;4.810;2023-09-08T12:41:17;11.23;;;6.45;;
37527;SDS011;23372;52.050;4.810;2023-09-08T12:43:43;9.52;;;6.50;;
37527;SDS011;23372;52.050;4.810;2023-09-08T12:46:09;7.63;;;6.07;;
37527;SDS011;23372;52.050;4.810;2023-09-08T12:48:35;7.43;;;6.22;;
37527;SDS011;23372;52.050;4.810;2023-09-08T12:51:00;9.95;;;6.93;;
37527;SDS011;23372;52.050;4.810;2023-09-08T12:53:26;13.35;;;6.93;;
37527;SDS011;23372;52.050;4.810;2023-09-08T12:55:52;8.35;;;6.45;;
37527;SDS011;23372;52.050;4.810;2023-09-08T12:58:18;7.63;;;6.25;;
37527;SDS011;23372;52.050;4.810;2023-09-08T13:00:44;14.30;;;7.20;;
37527;SDS011;23372;52.050;4.810;2023-09-08T13:03:10;9.80;;;7.25;;
37527;SDS011;23372;52.050;4.810;2023-09-08T13:05:35;9.35;;;7.80;;
37527;SDS011;23372;52.050;4.810;2023-09-08T13:08:03;11.68;;;7.35;;
37527;SDS011;23372;52.050;4.810;2023-09-08T13:10:29;11.23;;;7.97;;
37527;SDS011;23372;52.050;4.810;2023-09-08T13:12:54;10.93;;;6.97;;
37527;SDS011;23372;52.050;4.810;2023-09-08T13:15:20;10.73;;;6.35;;
37527;SDS011;23372;52.050;4.810;2023-09-08T13:17:46;12.52;;;8.13;;
37527;SDS011;23372;52.050;4.810;2023-09-08T13:20:11;11.77;;;7.38;;
37527;SDS011;23372;52.050;4.810;2023-09-08T13:22:37;12.43;;;8.20;;
37527;SDS011;23372;52.050;4.810;2023-09-08T13:25:03;10.73;;;7.78;;
37527;SDS011;23372;52.050;4.810;2023-09-08T13:27:29;9.48;;;8.48;;
37527;SDS011;23372;52.050;4.810;2023-09-08T13:29:54;8.07;;;7.28;;
37527;SDS011;23372;52.050;4.810;2023-09-08T13:32:32;8.38;;;6.80;;
37527;SDS011;23372;52.050;4.810;2023-09-08T13:34:57;12.07;;;8.82;;
37527;SDS011;23372;52.050;4.810;2023-09-08T13:37:23;11.15;;;7.50;;
37527;SDS011;23372;52.050;4.810;2023-09-08T13:39:48;11.40;;;7.55;;
37527;SDS011;23372;52.050;4.810;2023-09-08T13:42:14;12.68;;;7.22;;
37527;SDS011;23372;52.050;4.810;2023-09-08T13:44:40;10.10;;;7.13;;
37527;SDS011;23372;52.050;4.810;2023-09-08T13:47:06;12.77;;;7.75;;
37527;SDS011;23372;52.050;4.810;2023-09-08T13:49:31;13.63;;;7.78;;
37527;SDS011;23372;52.050;4.810;2023-09-08T13:51:57;14.82;;;8.18;;
37527;SDS011;23372;52.050;4.810;2023-09-08T13:54:22;9.68;;;7.45;;
37527;SDS011;23372;52.050;4.810;2023-09-08T13:56:57;10.25;;;7.53;;
37527;SDS011;23372;52.050;4.810;2023-09-08T13:59:24;13.75;;;7.65;;
37527;SDS011;23372;52.050;4.810;2023-09-08T14:01:49;10.45;;;8.18;;
37527;SDS011;23372;52.050;4.810;2023-09-08T14:04:15;12.73;;;8.98;;
37527;SDS011;23372;52.050;4.810;2023-09-08T14:06:40;11.63;;;8.20;;
37527;SDS011;23372;52.050;4.810;2023-09-08T14:09:06;15.70;;;10.30;;
37527;SDS011;23372;52.050;4.810;2023-09-08T14:11:32;10.93;;;8.23;;
37527;SDS011;23372;52.050;4.810;2023-09-08T14:13:57;11.02;;;7.85;;
37527;SDS011;23372;52.050;4.810;2023-09-08T14:16:23;14.15;;;8.95;;
37527;SDS011;23372;52.050;4.810;2023-09-08T14:18:49;14.10;;;9.55;;
37527;SDS011;23372;52.050;4.810;2023-09-08T14:21:14;10.75;;;9.30;;
37527;SDS011;23372;52.050;4.810;2023-09-08T14:23:40;11.63;;;8.57;;
37527;SDS011;23372;52.050;4.810;2023-09-08T14:26:06;12.05;;;7.57;;